Time;durP1;ratioP1;P1;durP2;ratioP2;P2;SDS_P1;SDS_P2;PMS_P1;PMS_P2;Temp;Humidity;BMP_temperature;BMP_pressure;BME280_temperature;BME280_humidity;BME280_pressure;Samples;Min_cycle;Max_cycle;Signal;HPM_P1;HPM_P2
2023/07/30 00:00:59;;;;;;;3.37;3.07;;;18.30;99.90;;;;;;4992851;28;20451;-90
2023/07/30 00:03:26;;;;;;;2.80;2.60;;;18.30;99.90;;;;;;4992755;28;20451;-91
2023/07/30 00:05:54;;;;;;;2.30;2.20;;;18.30;99.90;;;;;;4988949;28;20464;-90
2023/07/30 00:08:21;;;;;;;3.63;2.57;;;18.30;99.90;;;;;;4981307;28;20507;-90
2023/07/30 00:10:49;;;;;;;2.30;2.20;;;18.30;99.90;;;;;;4993002;28;20987;-91
2023/07/30 00:13:16;;;;;;;2.23;2.13;;;18.40;99.90;;;;;;4992881;28;20517;-91
2023/07/30 00:15:42;;;;;;;2.10;2.00;;;18.50;99.90;;;;;;4992657;28;20443;-91
2023/07/30 00:18:09;;;;;;;2.53;2.33;;;18.50;99.90;;;;;;4993103;28;20467;-91
2023/07/30 00:20:36;;;;;;;2.17;1.97;;;18.60;99.90;;;;;;4985003;28;20444;-90
2023/07/30 00:23:03;;;;;;;2.60;2.40;;;18.70;99.90;;;;;;4993074;28;20521;-90
2023/07/30 00:25:29;;;;;;;2.60;2.40;;;18.70;99.90;;;;;;4984033;28;20456;-90
2023/07/30 00:27:57;;;;;;;2.43;2.13;;;18.70;99.90;;;;;;4981222;28;20463;-91
2023/07/30 00:30:24;;;;;;;2.40;2.17;;;18.80;99.90;;;;;;4986981;28;20688;-90
2023/07/30 00:32:51;;;;;;;3.10;2.30;;;18.80;99.90;;;;;;4993221;28;20880;-91
2023/07/30 00:35:18;;;;;;;3.00;2.07;;;18.70;99.90;;;;;;4992719;28;20483;-91
2023/07/30 00:37:44;;;;;;;2.43;2.27;;;18.70;99.90;;;;;;4992160;28;20463;-90
2023/07/30 00:40:12;;;;;;;2.40;2.20;;;18.70;99.90;;;;;;4985983;28;20456;-90
2023/07/30 00:42:39;;;;;;;2.53;2.10;;;18.60;99.90;;;;;;4991020;28;20455;-90
2023/07/30 00:45:09;;;;;;;4.73;2.30;;;18.60;99.90;;;;;;4979456;28;20456;-91
2023/07/30 00:47:36;;;;;;;3.87;2.20;;;18.60;99.90;;;;;;4981127;28;20483;-90
2023/07/30 00:50:03;;;;;;;2.83;2.33;;;18.60;99.90;;;;;;4978142;28;20454;-90
2023/07/30 00:52:30;;;;;;;2.53;2.33;;;18.60;99.90;;;;;;4992113;28;20458;-91
2023/07/30 00:54:58;;;;;;;2.70;2.50;;;18.60;99.90;;;;;;4987921;28;20483;-90
2023/07/30 00:57:25;;;;;;;2.70;2.27;;;18.60;99.90;;;;;;4980873;28;21025;-89
2023/07/30 00:59:53;;;;;;;2.53;2.37;;;18.80;99.90;;;;;;4989367;28;20522;-91
2023/07/30 01:02:22;;;;;;;3.33;2.27;;;18.70;99.90;;;;;;4980780;28;20458;-90
2023/07/30 01:04:51;;;;;;;2.40;2.20;;;18.70;99.90;;;;;;4984774;28;20447;-91
2023/07/30 01:07:18;;;;;;;2.30;2.00;;;18.70;99.90;;;;;;4977209;28;20862;-91
2023/07/30 01:09:45;;;;;;;2.50;2.00;;;18.70;99.90;;;;;;4972884;28;20448;-90
2023/07/30 01:12:12;;;;;;;3.50;2.20;;;18.90;99.90;;;;;;4987566;28;21017;-92
2023/07/30 01:14:40;;;;;;;2.33;2.23;;;18.70;99.90;;;;;;4984588;28;20487;-91
2023/07/30 01:17:07;;;;;;;2.30;2.20;;;18.70;99.90;;;;;;4992655;28;20467;-90
2023/07/30 01:19:35;;;;;;;3.07;2.10;;;18.70;99.90;;;;;;4984537;28;20843;-90
2023/07/30 01:22:03;;;;;;;3.90;2.30;;;18.90;99.90;;;;;;4987825;28;20452;-91
2023/07/30 01:24:30;;;;;;;2.30;2.20;;;18.70;99.90;;;;;;4989757;28;20455;-90
2023/07/30 01:27:02;;;;;;;2.77;2.53;;;18.70;99.90;;;;;;4992822;28;20447;-91
2023/07/30 01:29:43;;;;;;;3.50;2.50;;;18.70;99.90;;;;;;4992440;28;20510;-91
2023/07/30 01:32:14;;;;;;;2.00;1.90;;;18.70;99.90;;;;;;4987234;28;20509;-91
2023/07/30 01:34:42;;;;;;;2.70;2.30;;;18.70;99.90;;;;;;4990442;28;20546;-91
2023/07/30 01:37:13;;;;;;;4.83;2.60;;;18.70;99.90;;;;;;4978782;28;20513;-91
2023/07/30 01:39:43;;;;;;;4.00;2.20;;;18.70;99.90;;;;;;4994146;28;21056;-92
2023/07/30 01:42:12;;;;;;;2.60;2.40;;;18.60;99.90;;;;;;4990614;28;20860;-90
2023/07/30 01:44:39;;;;;;;3.40;2.70;;;18.60;99.90;;;;;;4987092;28;20452;-90
2023/07/30 01:47:06;;;;;;;2.77;2.53;;;18.60;99.90;;;;;;4996923;28;20513;-90
2023/07/30 01:49:33;;;;;;;2.00;1.90;;;18.60;99.90;;;;;;4986636;28;21225;-89
2023/07/30 01:52:00;;;;;;;3.90;2.47;;;18.50;99.90;;;;;;4995849;28;20903;-90
2023/07/30 01:54:28;;;;;;;2.63;2.43;;;18.60;99.90;;;;;;4988536;28;20586;-90
2023/07/30 01:56:55;;;;;;;4.77;2.80;;;18.60;99.90;;;;;;4980369;28;20464;-89
2023/07/30 01:59:21;;;;;;;2.40;2.20;;;18.50;99.90;;;;;;4981291;28;20480;-90
2023/07/30 02:01:48;;;;;;;2.77;2.53;;;18.50;99.90;;;;;;4979163;28;20502;-88
2023/07/30 02:04:16;;;;;;;2.40;2.20;;;18.70;99.90;;;;;;4995923;28;20486;-90
2023/07/30 02:06:43;;;;;;;3.70;2.70;;;18.40;99.90;;;;;;4980316;28;20468;-89
2023/07/30 02:09:09;;;;;;;2.63;2.43;;;18.50;99.90;;;;;;4996013;28;20467;-90
2023/07/30 02:11:37;;;;;;;2.83;2.63;;;18.40;99.90;;;;;;4995525;28;20509;-91
2023/07/30 02:14:04;;;;;;;6.13;2.60;;;18.40;99.90;;;;;;4995645;28;20455;-90
2023/07/30 02:16:31;;;;;;;2.67;2.47;;;18.40;99.90;;;;;;4995868;28;20820;-90
2023/07/30 02:18:57;;;;;;;4.80;2.40;;;18.30;99.90;;;;;;4992234;28;20454;-90
2023/07/30 02:21:24;;;;;;;3.77;2.53;;;18.30;99.90;;;;;;4983545;28;20462;-90
2023/07/30 02:23:51;;;;;;;2.80;2.50;;;18.30;99.90;;;;;;5006892;28;20459;-92
2023/07/30 02:26:17;;;;;;;2.77;2.57;;;18.30;99.90;;;;;;5020214;28;20478;-92
2023/07/30 02:28:45;;;;;;;4.33;2.30;;;18.30;99.90;;;;;;4995351;28;20511;-90
2023/07/30 02:31:12;;;;;;;5.20;3.00;;;18.40;99.90;;;;;;4987232;28;20451;-90
2023/07/30 02:33:38;;;;;;;3.50;2.40;;;18.30;99.90;;;;;;4979406;28;20467;-89
2023/07/30 02:36:05;;;;;;;2.87;2.67;;;18.30;99.90;;;;;;4994990;28;21068;-90
2023/07/30 02:38:32;;;;;;;3.00;2.80;;;18.30;99.90;;;;;;4995491;28;20483;-88
2023/07/30 02:40:59;;;;;;;3.07;2.63;;;18.30;99.90;;;;;;4995161;28;20467;-91
2023/07/30 02:43:26;;;;;;;5.00;2.80;;;18.30;99.90;;;;;;4995508;28;20460;-90
2023/07/30 02:45:54;;;;;;;2.63;2.43;;;18.30;99.90;;;;;;4979467;28;20453;-90
2023/07/30 02:48:20;;;;;;;3.03;2.47;;;18.30;99.90;;;;;;4980707;28;20522;-90
2023/07/30 02:50:47;;;;;;;3.03;2.80;;;18.30;99.90;;;;;;4984473;28;20443;-91
2023/07/30 02:53:14;;;;;;;4.43;2.80;;;18.20;99.90;;;;;;4995184;28;20443;-89
2023/07/30 02:55:40;;;;;;;5.10;3.20;;;18.20;99.90;;;;;;4994962;28;20517;-90
2023/07/30 02:58:07;;;;;;;2.73;2.53;;;18.20;99.90;;;;;;4994950;28;20486;-90
2023/07/30 03:00:33;;;;;;;3.83;2.50;;;18.20;99.90;;;;;;4986933;28;20448;-90
2023/07/30 03:03:02;;;;;;;6.20;2.83;;;18.20;99.90;;;;;;4983962;28;20864;-90
2023/07/30 03:05:28;;;;;;;5.13;2.40;;;18.40;99.90;;;;;;4988126;28;20460;-93
2023/07/30 03:07:55;;;;;;;3.10;2.70;;;18.20;99.90;;;;;;4995208;28;20468;-90
2023/07/30 03:10:22;;;;;;;5.17;2.40;;;18.20;99.90;;;;;;4979952;28;20495;-90
2023/07/30 03:12:48;;;;;;;3.70;2.80;;;18.10;99.90;;;;;;4993055;28;20463;-90
2023/07/30 03:15:15;;;;;;;2.77;2.57;;;18.10;99.90;;;;;;4986728;28;20498;-90
2023/07/30 03:17:42;;;;;;;8.60;2.80;;;18.10;99.90;;;;;;4994212;28;20483;-90
2023/07/30 03:20:11;;;;;;;2.80;2.60;;;18.10;99.90;;;;;;4994272;28;20451;-91
2023/07/30 03:22:37;;;;;;;2.80;2.60;;;18.10;99.90;;;;;;4986221;28;20823;-91
2023/07/30 03:25:05;;;;;;;2.90;2.70;;;18.10;99.90;;;;;;4994300;28;20463;-90
2023/07/30 03:27:31;;;;;;;3.83;3.07;;;18.10;99.90;;;;;;4994325;28;20538;-90
2023/07/30 03:29:58;;;;;;;3.37;2.53;;;18.10;99.90;;;;;;4994628;28;20447;-89
2023/07/30 03:32:25;;;;;;;6.33;2.70;;;18.10;99.90;;;;;;4990243;28;20510;-91
2023/07/30 03:34:51;;;;;;;7.30;3.17;;;18.10;99.90;;;;;;4994842;28;20487;-92
2023/07/30 03:37:19;;;;;;;3.43;2.50;;;18.10;99.90;;;;;;4994371;28;20945;-91
2023/07/30 03:39:46;;;;;;;3.03;2.73;;;18.00;99.90;;;;;;4993124;28;20498;-90
2023/07/30 03:42:13;;;;;;;6.43;2.60;;;18.00;99.90;;;;;;4980917;28;20511;-91
2023/07/30 03:44:39;;;;;;;4.60;2.50;;;18.00;99.90;;;;;;4983035;28;20564;-90
2023/07/30 03:47:06;;;;;;;5.00;2.60;;;18.00;99.90;;;;;;4986662;28;20448;-90
2023/07/30 03:49:33;;;;;;;4.03;2.70;;;17.90;99.90;;;;;;4983637;28;20487;-90
2023/07/30 03:52:00;;;;;;;3.10;2.63;;;17.90;99.90;;;;;;4993988;28;20470;-90
2023/07/30 03:54:28;;;;;;;4.77;2.60;;;17.90;99.90;;;;;;4979123;28;20539;-91
2023/07/30 03:56:55;;;;;;;3.17;2.87;;;18.00;99.90;;;;;;4993432;28;20514;-91
2023/07/30 03:59:22;;;;;;;6.43;2.80;;;17.80;99.90;;;;;;4994049;28;20478;-91
2023/07/30 04:01:48;;;;;;;2.80;2.60;;;17.80;99.90;;;;;;4985905;28;20451;-91
2023/07/30 04:04:15;;;;;;;3.47;2.17;;;17.80;99.90;;;;;;4993207;28;20451;-90
2023/07/30 04:06:42;;;;;;;3.70;3.10;;;17.80;99.90;;;;;;4985289;28;20454;-91
2023/07/30 04:09:08;;;;;;;5.57;2.50;;;17.80;99.90;;;;;;4986323;28;20992;-91
2023/07/30 04:11:36;;;;;;;3.73;2.60;;;17.80;99.90;;;;;;4993920;28;20542;-91
2023/07/30 04:14:04;;;;;;;5.03;3.37;;;17.70;99.90;;;;;;4993436;28;20964;-89
2023/07/30 04:16:31;;;;;;;6.20;3.20;;;17.70;99.90;;;;;;4986438;28;20492;-90
2023/07/30 04:18:58;;;;;;;3.90;2.80;;;17.70;99.90;;;;;;4984935;28;20471;-90
2023/07/30 04:21:25;;;;;;;3.07;2.77;;;17.60;99.90;;;;;;4993427;28;20463;-90
2023/07/30 04:23:52;;;;;;;4.77;3.00;;;17.70;99.90;;;;;;4985739;28;20439;-90
2023/07/30 04:26:18;;;;;;;4.40;2.87;;;17.70;99.90;;;;;;4993471;28;20513;-91
2023/07/30 04:28:46;;;;;;;4.27;2.63;;;17.70;99.90;;;;;;4993308;28;20974;-91
2023/07/30 04:31:13;;;;;;;3.50;2.50;;;17.60;99.90;;;;;;4988003;28;20505;-91
2023/07/30 04:33:40;;;;;;;3.27;2.77;;;17.60;99.90;;;;;;4985421;28;20438;-92
2023/07/30 04:36:07;;;;;;;2.83;2.63;;;17.60;99.90;;;;;;4993185;28;20478;-90
2023/07/30 04:38:34;;;;;;;2.80;2.60;;;17.60;99.90;;;;;;4986482;28;20484;-91
2023/07/30 04:41:01;;;;;;;2.97;2.77;;;17.60;99.90;;;;;;4984208;28;20458;-91
2023/07/30 04:43:27;;;;;;;4.20;3.20;;;17.60;99.90;;;;;;4993147;28;20492;-91
2023/07/30 04:45:55;;;;;;;4.97;2.77;;;17.70;99.90;;;;;;4977136;28;20515;-90
2023/07/30 04:48:22;;;;;;;2.93;2.73;;;17.60;99.90;;;;;;4988209;28;21001;-90
2023/07/30 04:50:48;;;;;;;8.60;3.70;;;17.60;99.90;;;;;;4973511;28;20493;-91
2023/07/30 04:53:16;;;;;;;6.03;3.60;;;17.60;99.90;;;;;;4986598;28;20618;-91
2023/07/30 04:55:43;;;;;;;3.40;3.07;;;17.60;99.90;;;;;;4992618;28;21004;-88
2023/07/30 04:58:10;;;;;;;8.50;2.60;;;17.60;99.90;;;;;;4981882;28;20480;-91
2023/07/30 05:00:36;;;;;;;4.17;2.97;;;17.60;99.90;;;;;;4980533;28;20526;-91
2023/07/30 05:03:04;;;;;;;3.77;2.87;;;17.60;99.90;;;;;;4992967;28;20537;-91
2023/07/30 05:05:31;;;;;;;3.00;2.80;;;17.50;99.90;;;;;;4991888;28;20454;-91
2023/07/30 05:07:58;;;;;;;3.33;3.03;;;17.50;99.90;;;;;;4983540;28;20475;-91
2023/07/30 05:10:25;;;;;;;5.77;2.90;;;17.50;99.90;;;;;;4987181;28;20558;-91
2023/07/30 05:12:52;;;;;;;3.90;3.50;;;17.40;99.90;;;;;;4990730;28;20467;-91
2023/07/30 05:15:18;;;;;;;3.30;3.00;;;17.50;99.90;;;;;;4995992;28;20513;-91
2023/07/30 05:17:45;;;;;;;3.27;2.97;;;17.50;99.90;;;;;;4996483;28;20470;-91
2023/07/30 05:20:13;;;;;;;7.17;3.07;;;17.50;99.90;;;;;;4988749;28;20438;-90
2023/07/30 05:22:40;;;;;;;3.10;2.50;;;17.50;99.90;;;;;;4996499;28;20505;-90
2023/07/30 05:25:07;;;;;;;3.93;2.90;;;17.60;99.90;;;;;;4986174;28;20953;-90
2023/07/30 05:27:34;;;;;;;3.00;2.80;;;17.70;99.90;;;;;;4979868;28;20466;-90
2023/07/30 05:30:01;;;;;;;4.80;3.23;;;17.70;99.90;;;;;;5016008;28;20443;-92
2023/07/30 05:32:27;;;;;;;3.43;3.13;;;17.80;99.90;;;;;;5013149;28;20463;-93
2023/07/30 05:34:54;;;;;;;7.47;3.10;;;17.90;99.90;;;;;;4987814;28;21021;-91
2023/07/30 05:37:23;;;;;;;2.97;2.77;;;18.00;99.90;;;;;;4991016;28;20546;-89
2023/07/30 05:39:49;;;;;;;2.93;2.63;;;18.10;99.90;;;;;;4993122;28;20455;-89
2023/07/30 05:42:16;;;;;;;4.70;3.10;;;18.20;99.90;;;;;;4983861;28;20938;-89
2023/07/30 05:44:42;;;;;;;5.60;2.70;;;18.40;99.90;;;;;;4992168;28;20444;-89
2023/07/30 05:47:09;;;;;;;2.87;2.57;;;18.60;99.90;;;;;;4992630;28;20451;-89
2023/07/30 05:49:36;;;;;;;3.17;2.87;;;18.60;99.90;;;;;;4976326;28;20483;-89
2023/07/30 05:52:03;;;;;;;3.00;2.47;;;18.60;99.90;;;;;;4984642;28;20448;-89
2023/07/30 05:54:31;;;;;;;2.80;2.60;;;18.70;99.90;;;;;;4990519;28;20451;-89
2023/07/30 05:56:57;;;;;;;2.60;2.40;;;19.00;99.90;;;;;;4995520;28;20545;-88
2023/07/30 05:59:24;;;;;;;9.93;3.00;;;18.90;99.90;;;;;;4995539;28;20482;-88
2023/07/30 06:01:51;;;;;;;5.23;2.20;;;19.00;99.90;;;;;;4995670;28;20879;-88
2023/07/30 06:04:17;;;;;;;3.10;2.30;;;19.20;99.90;;;;;;4995671;28;20451;-88
2023/07/30 06:06:44;;;;;;;2.63;2.40;;;19.20;99.90;;;;;;4984292;28;20511;-89
2023/07/30 06:09:12;;;;;;;2.80;2.37;;;19.40;99.90;;;;;;4992343;28;20522;-88
2023/07/30 06:11:40;;;;;;;3.00;2.43;;;19.50;99.90;;;;;;4990582;28;20459;-89
2023/07/30 06:14:06;;;;;;;3.00;2.23;;;19.70;99.90;;;;;;4992671;28;20450;-88
2023/07/30 06:16:33;;;;;;;2.17;1.97;;;20.00;99.90;;;;;;4984168;28;20530;-88
2023/07/30 06:19:00;;;;;;;5.60;2.23;;;20.10;99.90;;;;;;4985552;28;20471;-88
2023/07/30 06:21:26;;;;;;;4.30;2.07;;;20.00;99.90;;;;;;4982180;28;20471;-88
2023/07/30 06:23:53;;;;;;;3.47;1.93;;;20.10;99.90;;;;;;4992321;28;20825;-88
2023/07/30 06:26:20;;;;;;;2.40;2.20;;;20.10;99.90;;;;;;4993833;28;20862;-88
2023/07/30 06:28:48;;;;;;;1.93;1.80;;;20.10;99.90;;;;;;4990027;28;20475;-89
2023/07/30 06:31:14;;;;;;;2.20;2.00;;;20.10;99.90;;;;;;4988339;28;20788;-90
2023/07/30 06:33:41;;;;;;;4.20;2.10;;;20.30;99.90;;;;;;4995132;28;20518;-90
2023/07/30 06:36:08;;;;;;;3.43;2.47;;;20.40;99.90;;;;;;4995044;28;20514;-90
2023/07/30 06:38:34;;;;;;;2.20;2.00;;;20.50;99.90;;;;;;4994800;28;20475;-89
2023/07/30 06:41:02;;;;;;;10.23;2.07;;;20.80;99.90;;;;;;4993356;28;20857;-89
2023/07/30 06:43:28;;;;;;;5.03;2.07;;;20.80;99.90;;;;;;4988783;28;20497;-89
2023/07/30 06:45:56;;;;;;;1.80;1.70;;;20.80;99.90;;;;;;4995191;28;20462;-89
2023/07/30 06:48:23;;;;;;;2.60;2.00;;;20.80;99.90;;;;;;4993947;28;20995;-89
2023/07/30 06:50:50;;;;;;;5.93;2.03;;;20.90;99.90;;;;;;4984264;28;20490;-89
2023/07/30 06:53:16;;;;;;;4.57;2.17;;;21.10;99.90;;;;;;4995965;28;20937;-88
2023/07/30 06:55:43;;;;;;;4.90;2.10;;;21.20;99.90;;;;;;4995557;28;20451;-88
2023/07/30 06:58:11;;;;;;;3.07;2.00;;;21.50;99.90;;;;;;4995796;28;20530;-89
2023/07/30 07:00:38;;;;;;;3.13;2.40;;;21.80;99.90;;;;;;4995748;28;20542;-89
2023/07/30 07:03:06;;;;;;;2.00;1.87;;;21.90;99.90;;;;;;4995785;28;20458;-88
2023/07/30 07:05:33;;;;;;;5.00;2.13;;;21.90;99.90;;;;;;4993767;28;20875;-87
2023/07/30 07:08:00;;;;;;;2.40;2.20;;;21.70;99.90;;;;;;4984162;28;20863;-89
2023/07/30 07:10:26;;;;;;;2.97;1.87;;;21.40;99.90;;;;;;4994317;28;21085;-89
2023/07/30 07:12:53;;;;;;;4.83;2.30;;;21.20;99.90;;;;;;4994532;28;20458;-88
2023/07/30 07:15:20;;;;;;;3.80;1.93;;;21.10;99.90;;;;;;4996254;28;20459;-89
2023/07/30 07:17:47;;;;;;;5.07;2.20;;;20.90;99.90;;;;;;4995586;28;20542;-90
2023/07/30 07:20:15;;;;;;;4.40;2.23;;;20.90;99.90;;;;;;4995070;28;20466;-89
2023/07/30 07:22:41;;;;;;;4.27;2.20;;;21.10;99.90;;;;;;4994775;28;20498;-89
2023/07/30 07:25:09;;;;;;;2.90;2.07;;;21.20;99.90;;;;;;4994821;28;20941;-90
2023/07/30 07:27:35;;;;;;;3.20;2.20;;;21.30;99.90;;;;;;4995625;28;20459;-88
2023/07/30 07:30:02;;;;;;;3.17;2.50;;;21.40;99.90;;;;;;4994904;28;20451;-88
2023/07/30 07:32:29;;;;;;;2.33;1.70;;;21.30;99.90;;;;;;4975796;28;20482;-90
2023/07/30 07:34:56;;;;;;;3.87;2.13;;;21.40;99.90;;;;;;4991578;28;20463;-89
2023/07/30 07:37:24;;;;;;;4.63;2.30;;;21.20;99.90;;;;;;4994605;28;20483;-89
2023/07/30 07:39:51;;;;;;;3.50;2.23;;;21.00;99.90;;;;;;4993831;28;20447;-90
2023/07/30 07:42:18;;;;;;;3.67;2.10;;;20.80;99.90;;;;;;4985577;28;20459;-88
2023/07/30 07:44:45;;;;;;;3.70;2.10;;;20.60;99.90;;;;;;4986919;28;20530;-90
2023/07/30 07:47:12;;;;;;;2.70;2.23;;;20.50;99.90;;;;;;4984413;28;20510;-89
2023/07/30 07:49:39;;;;;;;2.97;2.40;;;20.30;99.90;;;;;;4982581;28;21084;-88
2023/07/30 07:52:06;;;;;;;2.57;2.10;;;20.10;99.90;;;;;;4982087;28;20477;-89
2023/07/30 07:54:34;;;;;;;3.80;1.90;;;20.00;99.90;;;;;;4989426;28;20451;-89
2023/07/30 07:57:01;;;;;;;4.53;1.90;;;19.90;99.90;;;;;;4993259;28;20549;-90
2023/07/30 07:59:28;;;;;;;4.20;2.43;;;19.90;99.90;;;;;;4993138;28;20475;-89
2023/07/30 08:01:55;;;;;;;3.43;2.23;;;20.00;99.90;;;;;;4993510;28;20955;-89
2023/07/30 08:04:22;;;;;;;4.20;2.17;;;20.00;99.90;;;;;;4993282;28;20883;-88
2023/07/30 08:06:49;;;;;;;2.57;2.00;;;20.20;99.90;;;;;;4993637;28;20441;-88
2023/07/30 08:09:15;;;;;;;4.30;2.50;;;20.30;99.90;;;;;;4977127;28;20970;-90
2023/07/30 08:11:43;;;;;;;1.90;1.80;;;20.50;99.90;;;;;;4992715;28;20514;-89
2023/07/30 08:14:10;;;;;;;2.50;2.00;;;20.60;99.90;;;;;;4992797;28;20504;-89
2023/07/30 08:16:37;;;;;;;2.63;2.07;;;20.70;99.90;;;;;;4984739;28;20510;-89
2023/07/30 08:19:03;;;;;;;6.60;3.10;;;20.80;99.90;;;;;;4976528;28;20471;-90
2023/07/30 08:21:30;;;;;;;4.33;1.90;;;20.80;99.90;;;;;;4986144;28;20450;-88
2023/07/30 08:23:57;;;;;;;3.37;1.80;;;20.80;99.90;;;;;;4992659;28;20537;-90
2023/07/30 08:26:23;;;;;;;4.27;2.20;;;20.80;99.90;;;;;;4992901;28;20911;-90
2023/07/30 08:28:51;;;;;;;2.87;2.10;;;20.70;99.90;;;;;;4992740;28;20482;-88
2023/07/30 08:31:18;;;;;;;6.17;2.00;;;20.70;99.90;;;;;;4977070;28;20469;-89
2023/07/30 08:33:45;;;;;;;2.43;2.07;;;20.60;99.90;;;;;;4993931;28;20459;-90
2023/07/30 08:36:11;;;;;;;2.13;1.93;;;20.50;99.90;;;;;;5017710;28;20435;-90
2023/07/30 08:38:38;;;;;;;3.40;2.03;;;20.50;99.90;;;;;;5017439;28;20474;-91
2023/07/30 08:41:05;;;;;;;2.20;1.93;;;20.40;99.90;;;;;;4979854;28;20436;-89
2023/07/30 08:43:32;;;;;;;2.47;2.20;;;20.40;99.90;;;;;;4992692;28;20471;-89
2023/07/30 08:46:00;;;;;;;2.77;1.97;;;20.50;99.90;;;;;;4992863;28;20448;-89
2023/07/30 08:48:27;;;;;;;4.50;2.23;;;20.50;99.90;;;;;;4976063;28;20482;-90
2023/07/30 08:50:57;;;;;;;6.23;2.23;;;20.60;99.90;;;;;;4973361;28;20456;-90
2023/07/30 08:53:25;;;;;;;3.93;2.40;;;20.50;99.90;;;;;;4984213;28;20443;-90
2023/07/30 08:55:53;;;;;;;1.93;1.50;;;20.60;99.90;;;;;;4992479;28;20999;-90
2023/07/30 08:58:20;;;;;;;2.30;1.80;;;20.80;99.90;;;;;;4976186;28;20488;-89
2023/07/30 09:00:50;;;;;;;2.00;1.83;;;20.70;99.90;;;;;;4992575;28;20517;-89
2023/07/30 09:03:19;;;;;;;2.30;2.10;;;20.70;99.90;;;;;;4992682;28;20501;-90
2023/07/30 09:05:45;;;;;;;3.20;2.17;;;20.60;99.90;;;;;;4989044;28;20451;-89
2023/07/30 09:08:12;;;;;;;2.17;1.97;;;20.60;99.90;;;;;;4982296;28;20483;-89
2023/07/30 09:10:39;;;;;;;2.93;2.03;;;20.70;99.90;;;;;;4992021;28;20455;-89
2023/07/30 09:13:06;;;;;;;2.53;2.33;;;20.80;99.90;;;;;;4992078;28;20455;-90
2023/07/30 09:15:34;;;;;;;3.53;2.30;;;20.80;99.90;;;;;;4992592;28;20462;-90
2023/07/30 09:18:01;;;;;;;3.90;2.23;;;20.80;99.90;;;;;;4992008;28;20502;-89
2023/07/30 09:20:37;;;;;;;2.87;2.27;;;20.80;99.90;;;;;;4988342;28;20500;-89
2023/07/30 09:23:03;;;;;;;3.40;1.90;;;20.70;99.90;;;;;;4988845;28;20517;-89
2023/07/30 09:25:30;;;;;;;1.93;1.83;;;20.70;99.90;;;;;;4992563;28;20494;-89
2023/07/30 09:27:58;;;;;;;5.57;1.97;;;20.60;99.90;;;;;;4992381;28;20851;-89
2023/07/30 09:30:27;;;;;;;3.50;2.07;;;20.70;99.90;;;;;;4976196;28;20461;-90
2023/07/30 09:32:54;;;;;;;3.33;2.20;;;20.60;99.90;;;;;;4985562;28;20456;-90
2023/07/30 09:35:22;;;;;;;5.13;1.87;;;20.70;99.90;;;;;;4989016;28;20470;-89
2023/07/30 09:37:50;;;;;;;2.93;1.90;;;20.60;99.90;;;;;;4972692;28;21029;-89
2023/07/30 09:40:18;;;;;;;2.80;2.00;;;20.60;99.90;;;;;;4982663;28;20809;-89
2023/07/30 09:42:47;;;;;;;4.77;2.30;;;20.60;99.90;;;;;;4992294;28;20466;-90
2023/07/30 09:45:22;;;;;;;3.73;2.40;;;20.60;99.90;;;;;;4976020;28;20966;-90
2023/07/30 09:47:49;;;;;;;4.70;3.47;;;20.40;99.90;;;;;;4992821;28;20476;-89
2023/07/30 09:50:16;;;;;;;5.30;2.87;;;20.30;99.90;;;;;;4992782;28;20451;-88
2023/07/30 09:52:43;;;;;;;10.07;3.00;;;19.70;99.90;;;;;;4992609;28;20518;-90
2023/07/30 09:55:12;;;;;;;2.83;2.40;;;19.10;99.90;;;;;;4992611;28;20494;-90
2023/07/30 09:57:39;;;;;;;3.00;1.80;;;18.60;99.90;;;;;;4992022;28;20518;-90
2023/07/30 10:00:08;;;;;;;1.77;1.67;;;18.40;99.90;;;;;;4992840;28;20455;-88
2023/07/30 10:02:39;;;;;;;2.70;1.63;;;18.00;99.90;;;;;;4996207;28;20529;-90
2023/07/30 10:05:10;;;;;;;2.43;1.77;;;17.80;99.90;;;;;;4987673;28;20547;-90
2023/07/30 10:07:41;;;;;;;1.80;1.70;;;17.60;99.90;;;;;;4980035;28;20466;-90
2023/07/30 10:10:09;;;;;;;2.40;2.20;;;17.50;99.90;;;;;;4995331;28;21171;-88
2023/07/30 10:12:40;;;;;;;1.93;1.67;;;17.40;99.90;;;;;;4995507;28;20459;-90
2023/07/30 10:15:08;;;;;;;1.60;1.50;;;17.40;99.90;;;;;;4995321;28;20490;-89
2023/07/30 10:17:35;;;;;;;4.33;1.70;;;17.40;99.90;;;;;;4988263;28;20545;-90
2023/07/30 10:20:23;;;;;;;4.80;2.00;;;17.40;99.90;;;;;;4998616;28;20482;-88
2023/07/30 10:22:53;;;;;;;2.13;1.93;;;17.40;99.90;;;;;;4996290;28;20456;-90
2023/07/30 10:25:22;;;;;;;1.77;1.67;;;17.50;99.90;;;;;;4987704;28;20512;-89
2023/07/30 10:27:51;;;;;;;1.80;1.70;;;17.70;99.90;;;;;;4995923;28;20529;-89
2023/07/30 10:30:19;;;;;;;2.23;2.03;;;17.80;99.90;;;;;;4986651;28;20463;-90
2023/07/30 10:33:00;;;;;;;3.30;1.80;;;18.00;99.90;;;;;;4995379;28;20542;-89
2023/07/30 10:35:38;;;;;;;2.37;2.00;;;18.20;99.90;;;;;;4985388;28;20522;-90
2023/07/30 10:38:20;;;;;;;3.00;2.10;;;18.20;99.90;;;;;;4991916;28;21008;-89
2023/07/30 10:41:01;;;;;;;1.97;1.80;;;18.20;99.90;;;;;;4996822;28;20455;-89
2023/07/30 10:43:30;;;;;;;2.20;1.97;;;18.20;99.90;;;;;;4995451;28;20471;-90
2023/07/30 10:45:57;;;;;;;4.40;2.40;;;18.20;99.90;;;;;;4994948;28;20451;-89
2023/07/30 10:48:31;;;;;;;6.33;2.43;;;18.60;99.90;;;;;;4993644;28;20521;-89
2023/07/30 10:50:58;;;;;;;4.53;2.00;;;18.70;99.90;;;;;;4981370;28;20479;-90
2023/07/30 10:53:25;;;;;;;7.87;2.63;;;18.80;99.90;;;;;;4988049;28;20435;-90
2023/07/30 10:55:52;;;;;;;4.23;2.20;;;18.90;99.90;;;;;;4988841;28;20969;-90
2023/07/30 10:58:19;;;;;;;11.13;2.87;;;18.90;99.90;;;;;;4984182;28;20556;-89
2023/07/30 11:00:47;;;;;;;5.83;2.57;;;18.90;99.90;;;;;;4994316;28;20494;-89
2023/07/30 11:03:14;;;;;;;6.60;2.50;;;19.00;99.90;;;;;;4994206;28;20486;-89
2023/07/30 11:05:40;;;;;;;4.60;2.50;;;19.00;99.90;;;;;;4991473;28;20467;-90
2023/07/30 11:08:07;;;;;;;9.00;2.70;;;19.20;99.90;;;;;;4982315;28;20523;-90
2023/07/30 11:10:42;;;;;;;9.47;2.10;;;19.40;99.90;;;;;;4994261;28;20471;-91
2023/07/30 11:13:09;;;;;;;5.63;2.20;;;19.80;99.90;;;;;;4994096;28;21012;-89
2023/07/30 11:15:42;;;;;;;5.73;2.50;;;20.10;99.90;;;;;;4978902;28;20964;-90
2023/07/30 11:18:10;;;;;;;3.60;2.10;;;20.50;99.90;;;;;;4994176;28;20530;-89
2023/07/30 11:20:37;;;;;;;3.60;1.97;;;20.50;99.90;;;;;;4998721;28;20443;-89
2023/07/30 11:23:17;;;;;;;6.27;2.20;;;20.90;99.90;;;;;;4987573;28;20455;-89
2023/07/30 11:25:47;;;;;;;5.63;2.40;;;21.00;99.90;;;;;;4980097;28;20957;-89
2023/07/30 11:28:13;;;;;;;6.93;2.20;;;21.10;99.90;;;;;;4994223;28;20479;-89
2023/07/30 11:30:40;;;;;;;9.17;2.10;;;20.80;99.90;;;;;;4992661;28;20458;-89
2023/07/30 11:33:07;;;;;;;3.03;1.83;;;20.70;99.90;;;;;;4987443;28;20452;-89
2023/07/30 11:35:35;;;;;;;8.23;2.20;;;20.60;99.90;;;;;;4993640;28;20835;-90
2023/07/30 11:38:02;;;;;;;3.87;2.00;;;20.30;99.90;;;;;;4994438;28;20499;-89
2023/07/30 11:40:29;;;;;;;6.17;2.43;;;20.40;99.90;;;;;;5000595;28;20431;-92
2023/07/30 11:42:55;;;;;;;3.70;2.03;;;20.30;99.90;;;;;;5018777;28;20510;-90
2023/07/30 11:45:24;;;;;;;4.50;2.00;;;20.30;99.90;;;;;;5005910;28;20503;-89
2023/07/30 11:47:51;;;;;;;5.00;2.40;;;20.50;99.90;;;;;;4987842;28;20468;-89
2023/07/30 11:50:17;;;;;;;4.70;2.63;;;20.50;99.90;;;;;;4977755;28;20511;-88
2023/07/30 11:52:56;;;;;;;7.97;2.30;;;20.60;99.90;;;;;;4978974;28;20446;-90
2023/07/30 11:55:24;;;;;;;4.83;2.43;;;20.30;99.90;;;;;;4994181;28;20451;-89
2023/07/30 11:57:50;;;;;;;4.10;2.40;;;20.20;99.90;;;;;;4989117;28;20487;-90
2023/07/30 12:00:21;;;;;;;9.00;3.07;;;19.90;99.90;;;;;;4982764;28;20506;-89
2023/07/30 12:02:47;;;;;;;5.10;2.13;;;19.60;99.90;;;;;;4986089;28;20530;-89
2023/07/30 12:05:17;;;;;;;4.13;2.40;;;19.40;99.90;;;;;;4985524;28;20456;-89
2023/07/30 12:07:44;;;;;;;9.03;2.07;;;19.30;99.90;;;;;;4977728;28;20473;-89
2023/07/30 12:10:14;;;;;;;2.70;2.17;;;19.30;99.90;;;;;;4992772;28;20518;-89
2023/07/30 12:12:44;;;;;;;6.10;2.70;;;19.30;99.90;;;;;;4993798;28;20891;-89
2023/07/30 12:15:12;;;;;;;4.90;2.40;;;19.30;99.90;;;;;;4977437;28;20452;-90
2023/07/30 12:17:39;;;;;;;3.53;2.50;;;19.20;99.90;;;;;;4993075;28;20585;-89
2023/07/30 12:20:07;;;;;;;4.73;2.23;;;19.10;99.90;;;;;;4986097;28;20460;-89
2023/07/30 12:22:35;;;;;;;3.43;2.50;;;19.10;99.90;;;;;;4991957;28;20546;-88
2023/07/30 12:25:02;;;;;;;3.73;2.03;;;19.20;99.90;;;;;;4992158;28;20542;-90
2023/07/30 12:27:30;;;;;;;4.63;2.30;;;19.30;99.90;;;;;;4992820;28;21041;-89
2023/07/30 12:29:57;;;;;;;4.20;2.40;;;19.30;99.90;;;;;;4984955;28;20997;-89
2023/07/30 12:32:24;;;;;;;8.83;2.77;;;19.60;99.90;;;;;;4991037;28;20459;-90
2023/07/30 12:34:51;;;;;;;12.90;2.70;;;19.80;99.90;;;;;;4979984;28;20467;-89
2023/07/30 12:37:17;;;;;;;7.97;3.07;;;19.90;99.90;;;;;;4992817;28;20877;-89
2023/07/30 12:39:44;;;;;;;5.03;2.30;;;20.60;99.90;;;;;;4986397;28;20989;-90
2023/07/30 12:42:11;;;;;;;8.10;2.53;;;21.10;99.90;;;;;;4985416;28;20467;-89
2023/07/30 12:44:39;;;;;;;5.00;2.40;;;21.80;99.90;;;;;;4986014;28;20953;-88
2023/07/30 12:47:06;;;;;;;5.80;2.27;;;22.10;99.90;;;;;;4978772;28;20452;-90